Time;durP1;ratioP1;P1;durP2;ratioP2;P2;SDS_P1;SDS_P2;PMS_P1;PMS_P2;Temp;Humidity;BMP_temperature;BMP_pressure;BME280_temperature;BME280_humidity;BME280_pressure;Samples;Min_cycle;Max_cycle;Signal;HPM_P1;HPM_P2
2022/07/07 00:00:27;;;;;;;0.80;0.80;;;;;;;17.20;51.10;98637.44;4945443;28;20107;-80
2022/07/07 00:02:54;;;;;;;0.60;0.60;;;;;;;17.23;51.49;98643.09;4943399;29;20094;-80
2022/07/07 00:05:21;;;;;;;0.80;0.80;;;;;;;17.27;50.80;98636.31;4943510;29;20043;-80
2022/07/07 00:07:48;;;;;;;0.70;0.70;;;;;;;17.18;49.60;98634.22;4946579;28;20073;-80
2022/07/07 00:10:14;;;;;;;0.82;0.82;;;;;;;17.14;49.43;98641.81;4943363;28;20086;-80
2022/07/07 00:12:41;;;;;;;0.70;0.70;;;;;;;17.11;50.27;98637.00;4939385;29;20091;-80
2022/07/07 00:15:09;;;;;;;0.90;0.90;;;;;;;17.10;49.20;98635.38;4940663;29;20071;-80
2022/07/07 00:17:36;;;;;;;0.63;0.63;;;;;;;17.12;50.46;98628.00;4945271;28;20121;-81
2022/07/07 00:20:05;;;;;;;0.60;0.60;;;;;;;17.14;50.50;98625.91;4940382;29;20134;-80
2022/07/07 00:22:32;;;;;;;0.75;0.75;;;;;;;17.17;49.77;98633.44;4940085;29;20094;-81
2022/07/07 00:24:58;;;;;;;0.90;0.90;;;;;;;16.90;48.93;98624.25;4940826;29;20094;-81
2022/07/07 00:27:25;;;;;;;0.88;0.88;;;;;;;16.86;51.00;98634.53;4938930;29;20043;-80
2022/07/07 00:29:52;;;;;;;1.00;1.00;;;;;;;16.75;50.23;98628.16;4939928;29;20587;-81
2022/07/07 00:32:18;;;;;;;1.10;1.10;;;;;;;16.70;51.31;98617.44;4941877;29;20126;-80
2022/07/07 00:34:45;;;;;;;0.88;0.88;;;;;;;16.75;51.16;98616.75;4942868;28;20487;-81
2022/07/07 00:37:11;;;;;;;0.90;0.90;;;;;;;16.78;52.29;98622.38;4941103;29;20082;-80
2022/07/07 00:39:38;;;;;;;0.82;0.82;;;;;;;16.92;51.58;98627.50;4942123;28;20044;-80
2022/07/07 00:42:05;;;;;;;0.90;0.80;;;;;;;16.82;50.68;98628.84;4942621;28;20078;-80
2022/07/07 00:44:31;;;;;;;0.90;0.90;;;;;;;16.81;51.71;98627.25;4947568;29;20474;-80
2022/07/07 00:46:58;;;;;;;0.90;0.90;;;;;;;16.85;51.30;98624.94;4942422;29;20388;-80
2022/07/07 00:49:25;;;;;;;0.88;0.88;;;;;;;16.87;52.47;98616.78;4942582;29;20047;-80
2022/07/07 00:51:52;;;;;;;0.80;0.80;;;;;;;17.01;53.11;98626.13;4940980;28;20075;-81
2022/07/07 00:54:19;;;;;;;1.05;0.70;;;;;;;17.10;52.60;98624.78;4941813;29;20048;-81
2022/07/07 00:56:46;;;;;;;0.70;0.70;;;;;;;17.15;53.34;98624.88;4943709;29;20054;-80
2022/07/07 00:59:33;;;;;;;0.80;0.80;;;;;;;17.16;51.73;98613.25;4941198;29;20043;-80
2022/07/07 01:02:02;;;;;;;0.80;0.80;;;;;;;17.27;52.77;98612.47;4939779;29;20043;-80
2022/07/07 01:04:28;;;;;;;0.60;0.60;;;;;;;17.34;54.83;98609.69;4958863;28;20051;-80
2022/07/07 01:06:55;;;;;;;0.70;0.70;;;;;;;17.38;54.81;98608.97;4942255;29;20047;-81
2022/07/07 01:09:23;;;;;;;0.80;0.80;;;;;;;17.40;53.86;98608.78;4947241;29;20039;-81
2022/07/07 01:11:57;;;;;;;1.15;1.00;;;;;;;17.31;51.70;98610.13;4947994;28;20067;-80
2022/07/07 01:14:25;;;;;;;0.70;0.70;;;;;;;17.29;52.68;98606.94;4944639;29;20419;-80
2022/07/07 01:16:53;;;;;;;0.85;0.82;;;;;;;17.22;52.79;98604.38;4944785;29;20043;-80
2022/07/07 01:19:22;;;;;;;0.80;0.80;;;;;;;17.23;53.56;98598.03;4943502;28;20081;-80
2022/07/07 01:21:55;;;;;;;0.50;0.50;;;;;;;17.32;54.32;98599.31;4944157;29;20495;-81
2022/07/07 01:24:26;;;;;;;0.75;0.70;;;;;;;17.37;54.84;98593.31;4942316;29;20071;-80
2022/07/07 01:27:12;;;;;;;0.60;0.60;;;;;;;17.44;55.05;98587.88;4946691;29;20051;-81
2022/07/07 01:29:45;;;;;;;0.73;0.73;;;;;;;17.46;54.53;98580.53;4946015;29;20047;-81
2022/07/07 01:32:12;;;;;;;0.60;0.60;;;;;;;17.48;55.25;98581.91;4942954;29;20070;-81
2022/07/07 01:34:43;;;;;;;0.70;0.70;;;;;;;17.49;53.53;98569.44;4947802;29;20043;-81
2022/07/07 01:37:11;;;;;;;0.85;0.85;;;;;;;17.49;55.39;98570.25;4947202;29;20039;-80
2022/07/07 01:39:40;;;;;;;0.47;0.47;;;;;;;17.47;53.97;98563.56;4944517;29;20837;-81
2022/07/07 01:42:07;;;;;;;0.70;0.70;;;;;;;17.51;53.89;98564.69;4948879;29;20115;-81
2022/07/07 01:44:36;;;;;;;1.88;1.20;;;;;;;17.47;52.46;98566.22;4945519;29;20048;-80
2022/07/07 01:47:04;;;;;;;0.77;0.77;;;;;;;17.51;54.46;98567.34;4943835;29;20464;-80
2022/07/07 01:49:33;;;;;;;0.70;0.70;;;;;;;17.53;53.32;98562.66;4946295;29;20095;-81
2022/07/07 01:52:03;;;;;;;0.70;0.70;;;;;;;17.53;52.65;98570.59;4946723;28;20578;-81
2022/07/07 01:54:32;;;;;;;0.60;0.60;;;;;;;17.55;53.02;98569.31;4949164;28;20570;-81
2022/07/07 01:56:59;;;;;;;0.70;0.70;;;;;;;17.54;53.59;98564.25;4946175;29;20103;-80
2022/07/07 01:59:26;;;;;;;0.80;0.80;;;;;;;17.50;52.77;98561.25;4948148;29;20039;-80
2022/07/07 02:01:52;;;;;;;1.15;0.70;;;;;;;17.50;54.39;98563.91;4946143;28;20480;-80
2022/07/07 02:04:19;;;;;;;0.80;0.80;;;;;;;17.52;54.44;98564.50;4943994;28;20143;-80
2022/07/07 02:06:46;;;;;;;0.60;0.60;;;;;;;17.55;54.37;98560.56;4946612;29;20054;-80
2022/07/07 02:09:13;;;;;;;0.90;0.90;;;;;;;17.46;54.49;98572.56;4946969;28;20047;-81
2022/07/07 02:11:40;;;;;;;0.90;0.90;;;;;;;17.34;53.28;98573.38;4947586;29;20047;-80
2022/07/07 02:14:07;;;;;;;0.73;0.73;;;;;;;17.35;55.12;98580.28;4945009;29;20075;-81
2022/07/07 02:16:34;;;;;;;0.95;0.73;;;;;;;17.42;55.31;98580.19;4946610;29;20047;-81
2022/07/07 02:19:05;;;;;;;0.70;0.70;;;;;;;17.45;55.76;98578.88;4963486;28;20509;-80
2022/07/07 02:21:33;;;;;;;0.95;0.80;;;;;;;17.47;55.10;98575.00;4946370;28;20127;-81
2022/07/07 02:24:01;;;;;;;1.15;0.70;;;;;;;17.49;56.03;98574.75;4945128;28;20044;-81
2022/07/07 02:26:29;;;;;;;0.60;0.60;;;;;;;17.54;55.65;98566.91;4940974;28;20042;-80
2022/07/07 02:28:56;;;;;;;0.85;0.75;;;;;;;17.55;55.82;98563.22;4950638;28;20048;-81
2022/07/07 02:31:23;;;;;;;0.60;0.60;;;;;;;17.53;54.63;98565.28;4948779;28;20443;-81
2022/07/07 02:33:49;;;;;;;0.80;0.80;;;;;;;17.49;54.73;98570.25;4946698;28;20123;-81
2022/07/07 02:36:16;;;;;;;1.40;0.93;;;;;;;17.35;54.18;98580.28;4943803;28;20125;-81
2022/07/07 02:38:43;;;;;;;0.70;0.70;;;;;;;17.37;55.02;98564.94;4942875;28;20376;-80
2022/07/07 02:41:10;;;;;;;0.80;0.80;;;;;;;17.41;56.31;98567.97;4944785;28;20490;-81
2022/07/07 02:43:37;;;;;;;0.80;0.80;;;;;;;17.41;54.84;98565.31;4948627;29;20040;-80
2022/07/07 02:46:04;;;;;;;0.90;0.90;;;;;;;17.41;55.55;98561.84;4947097;29;20059;-81
2022/07/07 02:48:31;;;;;;;0.70;0.70;;;;;;;17.36;55.19;98555.41;4943885;28;20047;-81
2022/07/07 02:50:58;;;;;;;0.70;0.70;;;;;;;17.45;55.33;98568.28;4946531;28;20103;-81
2022/07/07 02:53:25;;;;;;;0.68;0.68;;;;;;;17.48;55.34;98566.00;4946743;28;20043;-81
2022/07/07 02:55:52;;;;;;;0.80;0.80;;;;;;;17.49;55.93;98564.13;4944155;28;20063;-81
2022/07/07 02:58:23;;;;;;;1.00;0.90;;;;;;;17.50;56.16;98561.25;4943557;29;20099;-81
2022/07/07 03:00:54;;;;;;;;;;;;;;;17.52;56.23;98574.28;4948116;29;20399;-81
2022/07/07 03:03:21;;;;;;;0.90;0.90;;;;;;;17.46;54.41;98564.63;4946934;28;19922;-80
2022/07/07 03:05:49;;;;;;;0.70;0.70;;;;;;;17.49;55.17;98558.84;4942808;28;20408;-81
2022/07/07 03:08:16;;;;;;;0.70;0.70;;;;;;;17.47;56.16;98560.94;4939620;29;20094;-81
2022/07/07 03:10:43;;;;;;;0.70;0.70;;;;;;;17.50;55.99;98560.44;4943298;28;20090;-81
2022/07/07 03:13:10;;;;;;;0.70;0.70;;;;;;;17.51;56.04;98560.22;4950345;29;20035;-80
2022/07/07 03:15:36;;;;;;;0.75;0.75;;;;;;;17.49;54.67;98564.13;4948883;28;20550;-81
2022/07/07 03:18:03;;;;;;;0.80;0.80;;;;;;;17.50;56.09;98563.09;4943239;29;20047;-81
2022/07/07 03:20:30;;;;;;;0.77;0.77;;;;;;;17.51;56.11;98556.75;4941581;29;20495;-80
2022/07/07 03:22:57;;;;;;;0.80;0.80;;;;;;;17.50;57.34;98555.13;4942028;28;20051;-81
2022/07/07 03:25:24;;;;;;;1.27;1.00;;;;;;;17.50;57.20;98550.63;4938092;29;20051;-80
2022/07/07 03:27:50;;;;;;;0.80;0.80;;;;;;;17.50;57.64;98547.19;4943442;29;20049;-80
2022/07/07 03:30:17;;;;;;;0.80;0.80;;;;;;;17.48;57.65;98551.94;4944542;28;20054;-80
2022/07/07 03:32:44;;;;;;;1.08;1.00;;;;;;;17.47;58.70;98545.00;4942198;29;20043;-80
2022/07/07 03:35:10;;;;;;;1.00;1.00;;;;;;;17.42;56.71;98548.34;4944106;29;20808;-80
2022/07/07 03:37:37;;;;;;;0.90;0.90;;;;;;;17.39;58.67;98548.81;4943331;28;20115;-80
2022/07/07 03:40:06;;;;;;;0.70;0.70;;;;;;;17.33;59.28;98549.72;4941374;29;20880;-81
2022/07/07 03:42:33;;;;;;;1.00;1.00;;;;;;;17.31;60.45;98541.22;4942011;29;20535;-81
2022/07/07 03:45:00;;;;;;;1.30;0.90;;;;;;;17.32;58.70;98543.63;4942464;29;20090;-80
2022/07/07 03:47:27;;;;;;;0.98;0.95;;;;;;;17.28;59.62;98537.19;4944237;29;20427;-80
2022/07/07 03:49:54;;;;;;;1.60;0.90;;;;;;;17.29;60.64;98536.16;4945005;29;20471;-81
2022/07/07 03:52:21;;;;;;;0.82;0.82;;;;;;;17.30;60.34;98545.72;4943334;28;20087;-80
2022/07/07 03:54:47;;;;;;;1.10;1.10;;;;;;;17.26;60.70;98544.56;4960220;28;20476;-80
2022/07/07 03:57:14;;;;;;;0.90;0.90;;;;;;;17.19;59.62;98535.91;4952952;28;20044;-80
2022/07/07 03:59:41;;;;;;;1.10;1.00;;;;;;;17.23;60.52;98549.53;4941532;28;20054;-80
2022/07/07 04:02:08;;;;;;;0.93;0.93;;;;;;;17.25;59.23;98537.66;4944835;28;20090;-80
2022/07/07 04:04:35;;;;;;;0.80;0.80;;;;;;;17.21;59.51;98523.22;4942653;29;20044;-80
2022/07/07 04:07:02;;;;;;;0.90;0.90;;;;;;;17.25;60.39;98532.34;4943446;29;20043;-80
2022/07/07 04:09:29;;;;;;;1.20;1.00;;;;;;;17.21;60.28;98523.22;4941706;28;20059;-80
2022/07/07 04:11:55;;;;;;;1.15;0.90;;;;;;;17.23;61.94;98517.72;4940645;28;20047;-80
2022/07/07 04:14:22;;;;;;;1.20;1.10;;;;;;;17.22;61.52;98527.53;4940156;29;20047;-80
2022/07/07 04:16:49;;;;;;;1.42;1.15;;;;;;;17.20;62.04;98523.47;4944849;29;20491;-80
2022/07/07 04:19:15;;;;;;;0.80;0.80;;;;;;;17.25;63.21;98532.34;4958018;28;20043;-81
2022/07/07 04:21:42;;;;;;;0.82;0.82;;;;;;;17.29;64.15;98528.19;4942326;29;20536;-81
2022/07/07 04:24:09;;;;;;;0.98;0.90;;;;;;;17.32;64.01;98530.38;4945480;28;20772;-81
2022/07/07 04:26:36;;;;;;;1.10;1.00;;;;;;;17.36;63.16;98528.88;4940010;29;20047;-80
2022/07/07 04:29:03;;;;;;;1.10;1.10;;;;;;;17.40;63.28;98534.53;4941599;29;20448;-80
2022/07/07 04:31:30;;;;;;;1.00;1.00;;;;;;;17.44;63.46;98540.16;4943827;28;20051;-80
2022/07/07 04:33:56;;;;;;;1.13;1.08;;;;;;;17.48;63.58;98536.00;4942814;28;20043;-80
2022/07/07 04:36:23;;;;;;;1.02;1.02;;;;;;;17.50;64.17;98536.56;4941601;28;20040;-80
2022/07/07 04:38:50;;;;;;;1.10;0.88;;;;;;;17.54;63.20;98532.44;4942501;29;20047;-80
2022/07/07 04:41:17;;;;;;;1.00;1.00;;;;;;;17.63;62.45;98523.88;4943030;28;20471;-80
2022/07/07 04:43:43;;;;;;;1.02;0.90;;;;;;;17.69;62.12;98526.63;4942308;28;20101;-80
2022/07/07 04:46:10;;;;;;;0.82;0.80;;;;;;;17.72;60.96;98511.09;4945562;28;20114;-81
2022/07/07 04:48:37;;;;;;;0.80;0.80;;;;;;;17.79;60.30;98521.56;4948839;29;20039;-80
2022/07/07 04:51:05;;;;;;;1.40;1.30;;;;;;;17.83;60.05;98522.69;4947566;29;20118;-80
2022/07/07 04:53:31;;;;;;;2.30;1.42;;;;;;;17.75;56.54;98509.78;4949643;28;20676;-80
2022/07/07 04:55:58;;;;;;;1.70;1.60;;;;;;;17.68;55.75;98515.19;4947605;28;20048;-81
2022/07/07 04:58:25;;;;;;;2.00;1.45;;;;;;;17.56;58.06;98511.78;4945563;29;20047;-80
2022/07/07 05:00:52;;;;;;;1.30;1.20;;;;;;;17.62;56.57;98510.84;4945737;28;20047;-80
2022/07/07 05:03:26;;;;;;;1.50;1.40;;;;;;;17.63;57.22;98510.63;4946492;29;20546;-80
2022/07/07 05:05:53;;;;;;;1.40;1.30;;;;;;;17.66;57.85;98506.69;4949578;29;20455;-80
2022/07/07 05:08:20;;;;;;;1.10;1.10;;;;;;;17.63;60.75;98486.75;4949216;29;20099;-81
2022/07/07 05:10:46;;;;;;;1.00;1.00;;;;;;;17.75;59.81;98492.06;4949296;29;20384;-81
2022/07/07 05:13:13;;;;;;;1.35;1.25;;;;;;;17.81;60.74;98507.03;4944177;28;20097;-80
2022/07/07 05:15:40;;;;;;;1.30;1.10;;;;;;;17.87;58.24;98503.44;4946076;29;20047;-81
2022/07/07 05:18:06;;;;;;;1.55;0.98;;;;;;;17.96;59.86;98508.34;4942448;29;20134;-81
2022/07/07 05:20:33;;;;;;;1.00;1.00;;;;;;;17.92;60.30;98503.50;4948267;29;20617;-81
2022/07/07 05:23:00;;;;;;;1.30;1.20;;;;;;;17.93;57.71;98506.97;4944991;28;20059;-81
2022/07/07 05:25:27;;;;;;;2.45;1.30;;;;;;;17.89;57.17;98504.00;4944308;28;20051;-81
2022/07/07 05:27:54;;;;;;;1.60;1.50;;;;;;;17.86;54.38;98501.78;4945386;28;20043;-80
2022/07/07 05:30:21;;;;;;;2.92;1.13;;;;;;;17.89;58.70;98506.66;4944811;28;20702;-80
2022/07/07 05:32:48;;;;;;;1.60;1.50;;;;;;;17.86;57.66;98511.59;4944901;29;20471;-80
2022/07/07 05:35:16;;;;;;;1.40;1.30;;;;;;;17.96;59.26;98509.16;4943785;29;20040;-80
2022/07/07 05:37:42;;;;;;;1.20;1.10;;;;;;;18.07;61.70;98496.88;4945892;29;20046;-81
2022/07/07 05:40:10;;;;;;;1.20;1.20;;;;;;;18.16;60.87;98501.53;4950468;29;20047;-81
2022/07/07 05:42:37;;;;;;;1.13;1.13;;;;;;;18.26;60.74;98506.25;4945659;28;20076;-81
2022/07/07 05:45:05;;;;;;;1.20;1.20;;;;;;;18.29;59.37;98500.47;4944542;29;20051;-81
2022/07/07 05:47:31;;;;;;;1.30;1.20;;;;;;;18.35;59.53;98504.81;4944510;29;20172;-81
2022/07/07 05:49:58;;;;;;;1.23;1.13;;;;;;;18.38;58.82;98514.94;4947659;28;20460;-81
2022/07/07 05:52:26;;;;;;;2.13;1.92;;;;;;;18.32;56.40;98510.59;4944691;29;20098;-80
2022/07/07 05:54:52;;;;;;;1.85;1.75;;;;;;;18.17;60.35;98510.31;4945629;29;20532;-80
2022/07/07 05:57:20;;;;;;;1.30;1.20;;;;;;;18.28;62.42;98508.66;4945646;28;20096;-81
2022/07/07 05:59:46;;;;;;;1.55;1.45;;;;;;;18.28;59.36;98503.34;4947042;28;20051;-81
2022/07/07 06:02:13;;;;;;;1.67;1.58;;;;;;;18.27;55.26;98505.19;4945001;29;20044;-81
2022/07/07 06:04:40;;;;;;;1.40;1.30;;;;;;;18.30;54.44;98504.72;4942722;29;20049;-80
2022/07/07 06:07:07;;;;;;;1.73;1.60;;;;;;;18.22;56.81;98509.59;4945853;28;20504;-80
2022/07/07 06:09:34;;;;;;;1.30;1.20;;;;;;;18.19;58.11;98501.09;4946725;29;20527;-81
2022/07/07 06:12:02;;;;;;;1.10;1.10;;;;;;;18.32;59.60;98504.47;4948121;29;20098;-81
2022/07/07 06:14:28;;;;;;;1.30;1.20;;;;;;;18.29;56.07;98500.47;4945803;28;20066;-81
2022/07/07 06:16:55;;;;;;;1.40;1.30;;;;;;;18.32;54.72;98501.81;4945099;29;20043;-81
2022/07/07 06:19:22;;;;;;;2.00;1.90;;;;;;;18.08;54.62;98498.50;4943236;29;20043;-81
2022/07/07 06:21:48;;;;;;;1.67;1.58;;;;;;;18.09;55.63;98489.47;4940997;28;20055;-80
2022/07/07 06:24:15;;;;;;;0.85;0.85;;;;;;;18.17;59.46;98489.06;4947148;29;20042;-80
2022/07/07 06:26:43;;;;;;;1.88;1.77;;;;;;;18.08;55.52;98491.31;4945374;29;20069;-81
2022/07/07 06:29:10;;;;;;;1.05;1.05;;;;;;;18.19;57.91;98489.66;4944427;29;20047;-81
2022/07/07 06:31:37;;;;;;;1.00;1.00;;;;;;;18.32;56.32;98496.53;4947230;28;20102;-81
2022/07/07 06:34:03;;;;;;;1.25;1.15;;;;;;;18.31;59.24;98506.34;4945312;28;20040;-80
2022/07/07 06:36:30;;;;;;;1.30;1.20;;;;;;;18.30;55.79;98495.97;4940257;29;20500;-80
2022/07/07 06:38:57;;;;;;;1.25;1.15;;;;;;;18.28;56.74;98490.88;4944531;28;20047;-80
2022/07/07 06:41:32;;;;;;;1.70;1.60;;;;;;;18.19;53.83;98495.78;4944193;28;20184;-80
2022/07/07 06:43:59;;;;;;;1.60;1.50;;;;;;;18.04;54.41;98497.34;4943807;29;20043;-80
2022/07/07 06:46:26;;;;;;;1.98;1.20;;;;;;;18.07;56.89;98483.59;4944723;29;20051;-80
2022/07/07 06:48:53;;;;;;;2.25;1.40;;;;;;;18.12;54.05;98489.81;4947378;29;20051;-79
2022/07/07 06:51:19;;;;;;;1.40;1.30;;;;;;;18.16;56.67;98485.63;4940538;28;20071;-81
2022/07/07 06:53:46;;;;;;;1.45;1.35;;;;;;;18.16;53.78;98490.13;4940708;29;20044;-81
2022/07/07 06:56:13;;;;;;;1.40;1.30;;;;;;;18.25;55.39;98494.00;4948295;29;20083;-79
2022/07/07 06:58:39;;;;;;;1.58;1.48;;;;;;;18.26;52.80;98492.97;4946745;29;20051;-80
2022/07/07 07:01:06;;;;;;;1.23;1.13;;;;;;;18.30;58.76;98496.75;4946577;29;20071;-81
2022/07/07 07:03:33;;;;;;;1.20;1.17;;;;;;;18.30;54.18;98496.75;4944948;29;20401;-81
2022/07/07 07:06:01;;;;;;;1.50;1.40;;;;;;;18.19;53.88;98494.97;4940963;28;20071;-84
2022/07/07 07:08:28;;;;;;;1.40;1.30;;;;;;;18.09;55.52;98494.78;4950443;28;20353;-83
2022/07/07 07:10:56;;;;;;;1.33;1.23;;;;;;;18.22;59.06;98517.56;4942053;29;20078;-83
2022/07/07 07:13:22;;;;;;;1.75;1.65;;;;;;;18.15;60.00;98517.72;4948550;28;20035;-82
2022/07/07 07:15:49;;;;;;;1.67;1.58;;;;;;;17.95;61.30;98499.59;4951189;29;20070;-83
2022/07/07 07:18:16;;;;;;;1.30;1.20;;;;;;;17.95;61.80;98509.41;4951742;28;20126;-82
2022/07/07 07:20:43;;;;;;;2.58;2.08;;;;;;;17.80;56.83;98501.94;4948819;29;20079;-84
2022/07/07 07:23:10;;;;;;;4.20;2.80;;;;;;;17.63;56.37;98501.84;4944711;29;20118;-83
2022/07/07 07:25:36;;;;;;;1.83;1.40;;;;;;;17.68;61.91;98509.91;4961054;28;20047;-82
2022/07/07 07:28:03;;;;;;;1.20;1.20;;;;;;;17.56;63.76;98501.16;4950144;29;20049;-82
2022/07/07 07:30:31;;;;;;;1.48;1.38;;;;;;;17.71;65.99;98519.25;4964322;28;20118;-84
2022/07/07 07:32:58;;;;;;;1.67;1.58;;;;;;;17.67;61.54;98510.94;4963386;28;20055;-83
2022/07/07 07:35:24;;;;;;;1.45;1.35;;;;;;;17.57;59.12;98502.78;4950594;28;20039;-83
2022/07/07 07:37:51;;;;;;;1.50;1.40;;;;;;;17.63;59.41;98509.78;4949260;29;20861;-83
2022/07/07 07:40:18;;;;;;;1.25;1.20;;;;;;;17.70;61.92;98513.13;4952088;28;20126;-83
2022/07/07 07:42:44;;;;;;;1.25;1.10;;;;;;;17.68;66.16;98512.56;4938463;29;20063;-82
2022/07/07 07:45:11;;;;;;;1.63;1.30;;;;;;;17.76;67.04;98509.56;4948959;29;20739;-83
2022/07/07 07:47:47;;;;;;;1.02;1.02;;;;;;;17.82;69.25;98510.47;4952206;28;20130;-82
2022/07/07 07:50:20;;;;;;;1.38;1.27;;;;;;;17.92;70.10;98513.31;4947388;28;20404;-82
2022/07/07 07:52:48;;;;;;;1.13;1.00;;;;;;;17.93;65.49;98512.25;4946574;29;20091;-82
2022/07/07 07:55:19;;;;;;;1.40;1.30;;;;;;;17.91;68.14;98514.34;4950253;29;20070;-83
2022/07/07 07:57:45;;;;;;;1.08;1.08;;;;;;;17.99;68.19;98518.47;4943028;29;20058;-82
2022/07/07 08:00:16;;;;;;;2.95;1.20;;;;;;;17.97;61.13;98520.56;4949110;29;20094;-83
2022/07/07 08:02:43;;;;;;;1.40;1.30;;;;;;;17.88;67.71;98506.88;4949392;29;20051;-82
2022/07/07 08:05:11;;;;;;;0.90;0.90;;;;;;;18.01;68.41;98519.88;4945785;28;20558;-84
2022/07/07 08:07:40;;;;;;;1.30;1.20;;;;;;;18.01;70.03;98519.88;4940510;29;20047;-81
2022/07/07 08:10:09;;;;;;;1.30;1.10;;;;;;;18.02;67.68;98515.38;4943078;29;20106;-82
2022/07/07 08:12:36;;;;;;;1.10;1.00;;;;;;;18.07;69.88;98510.16;4942782;29;20043;-81
2022/07/07 08:15:05;;;;;;;1.20;1.10;;;;;;;18.10;70.42;98507.00;4942485;29;20139;-81
2022/07/07 08:17:32;;;;;;;1.20;1.10;;;;;;;18.12;68.26;98500.44;4942055;28;20047;-82
2022/07/07 08:19:59;;;;;;;0.90;0.90;;;;;;;18.16;70.60;98495.44;4943907;28;20043;-82
2022/07/07 08:22:26;;;;;;;1.00;0.90;;;;;;;18.17;70.67;98502.34;4947337;28;20054;-82
2022/07/07 08:24:53;;;;;;;1.55;1.25;;;;;;;18.23;68.72;98506.69;4943164;28;20460;-82
2022/07/07 08:27:20;;;;;;;0.95;0.95;;;;;;;18.27;70.37;98502.53;4940147;29;20051;-82
2022/07/07 08:29:46;;;;;;;1.13;1.00;;;;;;;18.31;71.33;98501.03;4941784;29;20043;-82
2022/07/07 08:32:14;;;;;;;0.90;0.90;;;;;;;18.31;71.19;98489.59;4966084;28;20044;-81
2022/07/07 08:34:42;;;;;;;1.10;1.10;;;;;;;18.47;70.80;98499.41;4941598;29;20464;-82
2022/07/07 08:37:10;;;;;;;1.10;1.00;;;;;;;18.57;68.75;98496.13;4947421;28;20105;-82
2022/07/07 08:39:37;;;;;;;1.00;0.90;;;;;;;18.61;70.28;98497.25;4947651;29;20047;-82
2022/07/07 08:42:05;;;;;;;0.90;0.90;;;;;;;18.58;70.42;98481.78;4944074;28;20488;-82
2022/07/07 08:44:32;;;;;;;1.08;0.98;;;;;;;18.68;70.91;98503.25;4940337;29;20071;-82
2022/07/07 08:46:59;;;;;;;0.80;0.80;;;;;;;18.60;69.02;98493.81;4945168;29;20051;-81
2022/07/07 08:49:30;;;;;;;1.13;1.02;;;;;;;18.55;69.20;98487.59;4943217;29;20048;-82
2022/07/07 08:51:57;;;;;;;1.35;1.20;;;;;;;18.56;66.26;98495.31;4945496;28;20106;-83
2022/07/07 08:54:27;;;;;;;1.17;1.17;;;;;;;18.41;67.59;98498.56;4945708;28;20074;-82
2022/07/07 08:56:55;;;;;;;2.30;2.10;;;;;;;18.14;67.09;98481.59;4950762;28;20075;-82
2022/07/07 08:59:22;;;;;;;2.20;1.95;;;;;;;18.06;66.21;98497.94;4961490;28;20110;-84
2022/07/07 09:01:58;;;;;;;2.22;2.03;;;;;;;17.95;63.81;98488.16;4941585;28;20050;-84
2022/07/07 09:04:26;;;;;;;2.00;1.77;;;;;;;17.89;66.91;98493.38;4953047;28;20043;-88
2022/07/07 09:06:55;;;;;;;2.60;2.00;;;;;;;17.87;64.20;98492.81;4952828;29;20596;-90
2022/07/07 09:09:39;;;;;;;2.00;1.90;;;;;;;17.87;67.25;98487.50;4952334;29;20047;-90
2022/07/07 09:12:08;;;;;;;1.55;1.45;;;;;;;17.91;69.58;98488.63;4946875;29;20479;-90
2022/07/07 09:14:43;;;;;;;2.83;2.63;;;;;;;17.88;63.21;98494.41;4944687;29;20040;-90
2022/07/07 09:17:31;;;;;;;2.13;1.92;;;;;;;17.88;66.74;98499.72;4940777;29;20071;-91
2022/07/07 09:20:12;;;;;;;2.90;2.65;;;;;;;17.77;64.73;98491.81;4933007;29;20047;-90
2022/07/07 09:22:57;;;;;;;2.58;2.38;;;;;;;17.67;63.57;98497.69;4933289;29;20056;-91
2022/07/07 09:25:30;;;;;;;4.93;2.33;;;;;;;17.68;65.95;98504.59;4930108;29;20622;-90
2022/07/07 09:28:16;;;;;;;3.97;2.20;;;;;;;17.56;65.41;98496.66;4935979;29;20126;-91
2022/07/07 09:30:48;;;;;;;3.13;2.83;;;;;;;17.50;64.95;98502.91;4948269;29;20047;-92
2022/07/07 09:33:25;;;;;;;3.20;2.10;;;;;;;17.45;63.19;98499.34;4952533;29;20071;-91
2022/07/07 09:38:42;;;;;;;4.15;2.72;;;;;;;17.67;62.97;98509.09;4945022;29;20055;-88
2022/07/07 09:41:15;;;;;;;3.22;2.70;;;;;;;17.61;63.85;98488.00;4956062;28;20051;-90
2022/07/07 09:43:53;;;;;;;2.88;1.88;;;;;;;17.99;66.58;98497.25;4947306;29;20070;-91
2022/07/07 09:46:28;;;;;;;2.38;2.13;;;;;;;18.21;63.21;98495.53;4954566;29;20215;-90
2022/07/07 09:48:59;;;;;;;2.70;2.28;;;;;;;18.30;63.35;98496.75;4947617;28;20051;-91
2022/07/07 09:51:32;;;;;;;2.78;2.15;;;;;;;18.50;64.45;98484.88;4969885;28;20051;-90
2022/07/07 09:54:14;;;;;;;2.38;2.00;;;;;;;18.71;66.69;98489.47;4968119;28;20492;-91
2022/07/07 09:56:46;;;;;;;2.83;2.03;;;;;;;18.75;64.85;98485.28;4945487;29;20043;-92
2022/07/07 09:59:22;;;;;;;3.85;2.42;;;;;;;18.89;65.21;98491.06;4954072;29;20467;-91
2022/07/07 10:01:49;;;;;;;2.55;1.70;;;;;;;19.01;66.23;98483.00;4956568;28;20534;-90
2022/07/07 10:04:19;;;;;;;2.35;2.15;;;;;;;18.94;62.72;98486.63;4956057;28;20094;-91
2022/07/07 10:06:46;;;;;;;1.70;1.60;;;;;;;18.96;67.48;98483.75;4967490;28;20412;-92
2022/07/07 10:09:20;;;;;;;3.22;1.98;;;;;;;18.75;64.60;98487.94;4938210;29;20055;-91
2022/07/07 10:11:51;;;;;;;1.98;1.80;;;;;;;18.71;65.96;98484.97;4950039;29;20053;-90
2022/07/07 10:14:27;;;;;;;2.67;2.20;;;;;;;18.44;65.57;98476.81;4966693;28;20039;-91
2022/07/07 10:16:55;;;;;;;2.08;1.88;;;;;;;18.48;66.05;98492.28;4972410;28;20102;-90
2022/07/07 10:19:24;;;;;;;3.50;2.70;;;;;;;18.17;64.76;98491.72;4956963;28;20530;-91
2022/07/07 10:21:55;;;;;;;1.92;1.73;;;;;;;18.31;67.94;98487.75;4975773;28;20047;-91
2022/07/07 10:24:26;;;;;;;2.38;1.63;;;;;;;18.38;67.76;98483.09;4939962;29;20047;-91
2022/07/07 10:27:15;;;;;;;2.17;1.98;;;;;;;18.53;66.22;98495.00;4955997;29;20163;-90
2022/07/07 10:29:52;;;;;;;1.92;1.70;;;;;;;18.57;65.34;98496.94;4947304;29;20043;-91
2022/07/07 10:32:33;;;;;;;2.83;2.40;;;;;;;18.49;66.66;98505.31;4937870;29;20075;-92
2022/07/07 10:35:09;;;;;;;2.65;2.05;;;;;;;18.43;65.80;98501.75;4963335;28;20048;-92
2022/07/07 10:37:46;;;;;;;2.40;2.10;;;;;;;18.33;66.06;98496.28;4953467;29;20142;-92
2022/07/07 10:40:29;;;;;;;3.28;1.95;;;;;;;18.35;67.15;98494.19;4937383;29;20055;-88
2022/07/07 10:43:18;;;;;;;2.00;1.90;;;;;;;18.40;65.76;98496.91;4937419;28;20048;-91
2022/07/07 10:45:47;;;;;;;1.70;1.60;;;;;;;18.50;65.97;98500.81;4946145;29;20040;-91
2022/07/07 10:48:43;;;;;;;2.15;1.80;;;;;;;18.47;65.27;98494.09;4952036;29;20044;-90
2022/07/07 10:51:25;;;;;;;1.88;1.60;;;;;;;18.45;65.54;98483.72;4945867;29;20431;-92
2022/07/07 10:54:10;;;;;;;1.60;1.50;;;;;;;18.51;67.61;98507.72;4940689;29;20847;-88
2022/07/07 10:56:55;;;;;;;2.30;2.10;;;;;;;18.49;63.75;98491.22;4940603;29;20051;-90
2022/07/07 10:59:23;;;;;;;1.92;1.70;;;;;;;18.58;65.24;98492.41;4967614;28;20043;-91
2022/07/07 11:02:27;;;;;;;1.80;1.67;;;;;;;18.56;62.65;98479.38;4967094;28;20499;-90
2022/07/07 11:04:54;;;;;;;2.53;1.98;;;;;;;18.68;63.44;98489.97;4949455;29;20123;-93
2022/07/07 11:07:24;;;;;;;4.20;2.38;;;;;;;18.59;62.38;98483.41;4937255;29;20051;-90
2022/07/07 11:10:11;;;;;;;2.35;1.88;;;;;;;18.96;63.99;98486.41;4949429;29;20385;-90
2022/07/07 11:12:44;;;;;;;2.00;1.58;;;;;;;19.07;64.29;98492.66;4949151;29;20048;-89
2022/07/07 11:15:23;;;;;;;1.55;1.40;;;;;;;19.27;66.91;98489.47;4949007;29;20039;-90
2022/07/07 11:17:53;;;;;;;1.73;1.55;;;;;;;19.33;65.20;98483.19;4944339;29;20402;-89
2022/07/07 11:20:32;;;;;;;1.70;1.60;;;;;;;19.46;64.74;98486.25;4956854;28;20053;-89
2022/07/07 11:23:12;;;;;;;1.50;1.40;;;;;;;19.50;67.60;98490.06;4952626;29;20051;-89
2022/07/07 11:25:41;;;;;;;1.50;1.40;;;;;;;19.51;68.27;98480.22;4946361;29;20063;-89
2022/07/07 11:28:10;;;;;;;2.65;1.48;;;;;;;19.53;65.30;98476.25;4945008;29;20735;-89
2022/07/07 11:30:40;;;;;;;1.98;1.50;;;;;;;19.57;64.20;98478.41;4947662;29;20075;-90
2022/07/07 11:33:09;;;;;;;1.70;1.60;;;;;;;19.61;62.99;98474.22;4938076;29;20051;-89
2022/07/07 11:35:40;;;;;;;1.55;1.45;;;;;;;19.62;62.87;98476.66;4954857;28;20468;-90
2022/07/07 11:38:12;;;;;;;;;;;;;;;19.66;64.70;98472.41;4957454;28;20439;-90
2022/07/07 11:40:41;;;;;;;2.05;1.30;;;;;;;19.72;63.23;98475.94;4943568;29;19974;-90
2022/07/07 11:43:24;;;;;;;1.75;1.65;;;;;;;19.79;62.76;98465.91;4953179;28;20648;-89
2022/07/07 11:45:52;;;;;;;2.28;1.50;;;;;;;19.68;62.24;98458.91;4936021;29;20395;-90